Armstrong Mills, Ohio
Current Conditions -  °F | °C
As of 6:53 AM on Thursday 27 Nov 2014 (Local Time) from KHLG Reporting Station
Overcast Overcast  
Wind Chill: 24°   Ceiling: 4300
Heat Index: 31°   Visibility: 7mi
Dew Point: 28°   Wind: 7mph
Humidity: 89%   Direction: 320°NW
Pressure: 30.03"   Gusts: NA
Location:  39.9375°N, 80.8976°W
Report Text: KHLG 271153Z 32006KT 7SM OVC043 M01/M02 A3003 RMK AO2 SLP182 70010 T10061022 10000 21006 53010
Loading
Personal Weather Stations






























Interactive Weather Map New forecast layout! Learn more

10-Day Weather Forecast

Advertisements
Track Severe Weather on mobile